sensor_id;sensor_type;location;lat;lon;timestamp;P1;durP1;ratioP1;P2;durP2;ratioP2
2522;SDS011;1272;53.332;9.860;2023-03-14T00:00:20;5.00;;;3.50;;
2522;SDS011;1272;53.332;9.860;2023-03-14T00:02:50;4.33;;;2.90;;
2522;SDS011;1272;53.332;9.860;2023-03-14T00:05:19;5.57;;;2.63;;
2522;SDS011;1272;53.332;9.860;2023-03-14T00:07:45;6.70;;;2.80;;
2522;SDS011;1272;53.332;9.860;2023-03-14T00:10:12;9.97;;;4.10;;
2522;SDS011;1272;53.332;9.860;2023-03-14T00:12:39;4.27;;;2.97;;
2522;SDS011;1272;53.332;9.860;2023-03-14T00:15:06;3.03;;;2.83;;
2522;SDS011;1272;53.332;9.860;2023-03-14T00:17:32;4.50;;;3.10;;
2522;SDS011;1272;53.332;9.860;2023-03-14T00:19:59;4.83;;;2.60;;
2522;SDS011;1272;53.332;9.860;2023-03-14T00:22:33;2.80;;;2.60;;
2522;SDS011;1272;53.332;9.860;2023-03-14T00:25:02;5.90;;;3.13;;
2522;SDS011;1272;53.332;9.860;2023-03-14T00:27:29;8.60;;;3.07;;
2522;SDS011;1272;53.332;9.860;2023-03-14T00:29:55;4.53;;;2.87;;
2522;SDS011;1272;53.332;9.860;2023-03-14T00:32:21;3.20;;;2.87;;
2522;SDS011;1272;53.332;9.860;2023-03-14T00:34:47;4.57;;;3.20;;
2522;SDS011;1272;53.332;9.860;2023-03-14T00:37:12;3.93;;;2.73;;
2522;SDS011;1272;53.332;9.860;2023-03-14T00:39:38;3.80;;;2.70;;
2522;SDS011;1272;53.332;9.860;2023-03-14T00:42:04;4.03;;;2.57;;
2522;SDS011;1272;53.332;9.860;2023-03-14T00:44:30;3.20;;;3.00;;
2522;SDS011;1272;53.332;9.860;2023-03-14T00:46:56;4.73;;;2.50;;
2522;SDS011;1272;53.332;9.860;2023-03-14T00:49:22;3.13;;;2.83;;
2522;SDS011;1272;53.332;9.860;2023-03-14T00:51:49;3.97;;;3.57;;
2522;SDS011;1272;53.332;9.860;2023-03-14T00:54:16;5.07;;;2.90;;
2522;SDS011;1272;53.332;9.860;2023-03-14T00:56:42;4.67;;;2.97;;
2522;SDS011;1272;53.332;9.860;2023-03-14T00:59:08;4.67;;;3.03;;
2522;SDS011;1272;53.332;9.860;2023-03-14T01:01:34;5.47;;;3.57;;
2522;SDS011;1272;53.332;9.860;2023-03-14T01:04:00;4.60;;;3.80;;
2522;SDS011;1272;53.332;9.860;2023-03-14T01:06:26;10.43;;;3.60;;
2522;SDS011;1272;53.332;9.860;2023-03-14T01:08:53;3.17;;;2.87;;
2522;SDS011;1272;53.332;9.860;2023-03-14T01:11:24;5.47;;;2.83;;
2522;SDS011;1272;53.332;9.860;2023-03-14T01:13:51;4.83;;;2.63;;
2522;SDS011;1272;53.332;9.860;2023-03-14T01:16:18;5.80;;;3.30;;
2522;SDS011;1272;53.332;9.860;2023-03-14T01:18:45;5.13;;;3.23;;
2522;SDS011;1272;53.332;9.860;2023-03-14T01:23:48;4.77;;;3.10;;
2522;SDS011;1272;53.332;9.860;2023-03-14T01:26:15;8.47;;;3.90;;
2522;SDS011;1272;53.332;9.860;2023-03-14T01:28:44;3.87;;;3.40;;
2522;SDS011;1272;53.332;9.860;2023-03-14T01:31:10;6.97;;;3.70;;
2522;SDS011;1272;53.332;9.860;2023-03-14T01:33:36;4.67;;;3.30;;
2522;SDS011;1272;53.332;9.860;2023-03-14T01:36:03;4.67;;;3.30;;
2522;SDS011;1272;53.332;9.860;2023-03-14T01:38:30;6.50;;;3.73;;
2522;SDS011;1272;53.332;9.860;2023-03-14T01:40:57;11.83;;;4.10;;
2522;SDS011;1272;53.332;9.860;2023-03-14T01:43:23;3.90;;;3.10;;
2522;SDS011;1272;53.332;9.860;2023-03-14T01:54:16;6.13;;;2.97;;
2522;SDS011;1272;53.332;9.860;2023-03-14T01:56:44;9.87;;;3.37;;
2522;SDS011;1272;53.332;9.860;2023-03-14T01:59:14;5.50;;;3.20;;
2522;SDS011;1272;53.332;9.860;2023-03-14T02:01:41;6.50;;;2.73;;
2522;SDS011;1272;53.332;9.860;2023-03-14T02:04:10;10.70;;;3.50;;
2522;SDS011;1272;53.332;9.860;2023-03-14T02:06:46;3.17;;;2.90;;
2522;SDS011;1272;53.332;9.860;2023-03-14T02:09:20;3.83;;;3.53;;
2522;SDS011;1272;53.332;9.860;2023-03-14T02:11:46;9.83;;;5.73;;
2522;SDS011;1272;53.332;9.860;2023-03-14T02:14:25;7.10;;;3.30;;
2522;SDS011;1272;53.332;9.860;2023-03-14T02:17:00;7.40;;;4.03;;
2522;SDS011;1272;53.332;9.860;2023-03-14T02:20:05;5.80;;;4.00;;
2522;SDS011;1272;53.332;9.860;2023-03-14T02:22:25;6.83;;;3.70;;
2522;SDS011;1272;53.332;9.860;2023-03-14T02:27:28;10.10;;;3.90;;
2522;SDS011;1272;53.332;9.860;2023-03-14T02:32:25;7.13;;;3.60;;
2522;SDS011;1272;53.332;9.860;2023-03-14T02:34:53;5.73;;;3.70;;
2522;SDS011;1272;53.332;9.860;2023-03-14T02:37:23;5.80;;;3.80;;
2522;SDS011;1272;53.332;9.860;2023-03-14T02:39:54;7.77;;;3.53;;
2522;SDS011;1272;53.332;9.860;2023-03-14T02:42:20;3.80;;;3.47;;
2522;SDS011;1272;53.332;9.860;2023-03-14T02:47:25;7.20;;;4.03;;
2522;SDS011;1272;53.332;9.860;2023-03-14T02:49:55;4.97;;;3.23;;
2522;SDS011;1272;53.332;9.860;2023-03-14T02:52:28;6.83;;;3.60;;
2522;SDS011;1272;53.332;9.860;2023-03-14T02:54:54;4.23;;;3.57;;
2522;SDS011;1272;53.332;9.860;2023-03-14T02:57:20;5.47;;;2.93;;
2522;SDS011;1272;53.332;9.860;2023-03-14T02:59:45;5.17;;;3.23;;
2522;SDS011;1272;53.332;9.860;2023-03-14T03:02:11;6.10;;;3.07;;
2522;SDS011;1272;53.332;9.860;2023-03-14T03:04:37;3.83;;;3.00;;
2522;SDS011;1272;53.332;9.860;2023-03-14T03:07:03;5.10;;;2.80;;
2522;SDS011;1272;53.332;9.860;2023-03-14T03:09:28;10.47;;;3.00;;
2522;SDS011;1272;53.332;9.860;2023-03-14T03:11:54;5.13;;;3.67;;
2522;SDS011;1272;53.332;9.860;2023-03-14T03:14:20;4.47;;;3.20;;
2522;SDS011;1272;53.332;9.860;2023-03-14T03:16:46;3.10;;;2.80;;
2522;SDS011;1272;53.332;9.860;2023-03-14T03:19:11;4.97;;;2.73;;
2522;SDS011;1272;53.332;9.860;2023-03-14T03:21:38;5.93;;;3.43;;
2522;SDS011;1272;53.332;9.860;2023-03-14T03:24:04;6.50;;;4.10;;
2522;SDS011;1272;53.332;9.860;2023-03-14T03:26:32;7.50;;;3.40;;
2522;SDS011;1272;53.332;9.860;2023-03-14T03:28:59;9.60;;;3.47;;
2522;SDS011;1272;53.332;9.860;2023-03-14T03:31:25;4.70;;;3.00;;
2522;SDS011;1272;53.332;9.860;2023-03-14T03:33:51;4.73;;;2.90;;
2522;SDS011;1272;53.332;9.860;2023-03-14T03:36:20;8.57;;;4.03;;
2522;SDS011;1272;53.332;9.860;2023-03-14T03:38:49;4.07;;;3.77;;
2522;SDS011;1272;53.332;9.860;2023-03-14T03:41:15;5.03;;;3.17;;
2522;SDS011;1272;53.332;9.860;2023-03-14T03:43:41;8.40;;;3.43;;
2522;SDS011;1272;53.332;9.860;2023-03-14T03:46:07;5.50;;;2.93;;
2522;SDS011;1272;53.332;9.860;2023-03-14T03:48:33;11.87;;;4.70;;
2522;SDS011;1272;53.332;9.860;2023-03-14T03:51:00;8.33;;;3.83;;
2522;SDS011;1272;53.332;9.860;2023-03-14T03:53:26;4.60;;;3.10;;
2522;SDS011;1272;53.332;9.860;2023-03-14T03:55:51;8.60;;;3.90;;
2522;SDS011;1272;53.332;9.860;2023-03-14T03:58:17;4.80;;;3.60;;
2522;SDS011;1272;53.332;9.860;2023-03-14T04:00:43;4.73;;;3.47;;
2522;SDS011;1272;53.332;9.860;2023-03-14T04:03:09;7.93;;;3.43;;
2522;SDS011;1272;53.332;9.860;2023-03-14T04:05:34;7.80;;;3.67;;
2522;SDS011;1272;53.332;9.860;2023-03-14T04:08:00;7.90;;;3.77;;
2522;SDS011;1272;53.332;9.860;2023-03-14T04:10:27;5.83;;;3.90;;
2522;SDS011;1272;53.332;9.860;2023-03-14T04:12:53;6.27;;;3.67;;
2522;SDS011;1272;53.332;9.860;2023-03-14T04:15:18;4.07;;;3.23;;
2522;SDS011;1272;53.332;9.860;2023-03-14T04:17:44;5.53;;;3.60;;
2522;SDS011;1272;53.332;9.860;2023-03-14T04:20:10;5.80;;;3.23;;
2522;SDS011;1272;53.332;9.860;2023-03-14T04:22:37;5.20;;;3.40;;
2522;SDS011;1272;53.332;9.860;2023-03-14T04:25:03;5.63;;;3.80;;
2522;SDS011;1272;53.332;9.860;2023-03-14T04:27:30;4.83;;;3.40;;
2522;SDS011;1272;53.332;9.860;2023-03-14T04:29:56;12.10;;;4.73;;
2522;SDS011;1272;53.332;9.860;2023-03-14T04:32:22;8.50;;;3.97;;
2522;SDS011;1272;53.332;9.860;2023-03-14T04:34:48;7.93;;;4.00;;
2522;SDS011;1272;53.332;9.860;2023-03-14T04:37:14;5.37;;;3.90;;
2522;SDS011;1272;53.332;9.860;2023-03-14T04:39:39;6.87;;;4.33;;
2522;SDS011;1272;53.332;9.860;2023-03-14T04:42:05;7.17;;;3.60;;
2522;SDS011;1272;53.332;9.860;2023-03-14T04:44:31;5.23;;;3.60;;
2522;SDS011;1272;53.332;9.860;2023-03-14T04:46:57;3.70;;;3.40;;
2522;SDS011;1272;53.332;9.860;2023-03-14T04:49:23;6.13;;;4.00;;
2522;SDS011;1272;53.332;9.860;2023-03-14T04:51:48;3.37;;;3.07;;
2522;SDS011;1272;53.332;9.860;2023-03-14T04:54:16;4.63;;;4.33;;
2522;SDS011;1272;53.332;9.860;2023-03-14T04:56:42;3.33;;;3.10;;
2522;SDS011;1272;53.332;9.860;2023-03-14T04:59:08;5.37;;;3.30;;
2522;SDS011;1272;53.332;9.860;2023-03-14T05:01:34;6.07;;;4.27;;
2522;SDS011;1272;53.332;9.860;2023-03-14T05:04:00;4.27;;;3.90;;
2522;SDS011;1272;53.332;9.860;2023-03-14T05:06:26;9.93;;;3.90;;
2522;SDS011;1272;53.332;9.860;2023-03-14T05:08:51;4.67;;;3.93;;
2522;SDS011;1272;53.332;9.860;2023-03-14T05:11:17;5.70;;;3.80;;
2522;SDS011;1272;53.332;9.860;2023-03-14T05:13:43;6.63;;;4.70;;
2522;SDS011;1272;53.332;9.860;2023-03-14T05:16:09;8.67;;;4.50;;
2522;SDS011;1272;53.332;9.860;2023-03-14T05:18:36;7.17;;;3.73;;
2522;SDS011;1272;53.332;9.860;2023-03-14T05:21:02;8.40;;;4.03;;
2522;SDS011;1272;53.332;9.860;2023-03-14T05:23:29;5.60;;;4.20;;
2522;SDS011;1272;53.332;9.860;2023-03-14T05:25:54;6.13;;;4.60;;
2522;SDS011;1272;53.332;9.860;2023-03-14T05:28:20;4.80;;;3.43;;
2522;SDS011;1272;53.332;9.860;2023-03-14T05:30:46;6.93;;;3.47;;
2522;SDS011;1272;53.332;9.860;2023-03-14T05:33:13;5.20;;;3.90;;
2522;SDS011;1272;53.332;9.860;2023-03-14T05:35:38;6.80;;;3.90;;
2522;SDS011;1272;53.332;9.860;2023-03-14T05:38:04;6.13;;;3.73;;
2522;SDS011;1272;53.332;9.860;2023-03-14T05:40:30;6.43;;;4.17;;
2522;SDS011;1272;53.332;9.860;2023-03-14T05:42:55;12.07;;;4.00;;
2522;SDS011;1272;53.332;9.860;2023-03-14T05:45:21;8.63;;;3.93;;
2522;SDS011;1272;53.332;9.860;2023-03-14T05:47:47;8.90;;;4.40;;
2522;SDS011;1272;53.332;9.860;2023-03-14T05:50:12;7.47;;;3.90;;
2522;SDS011;1272;53.332;9.860;2023-03-14T05:52:38;6.70;;;3.63;;
2522;SDS011;1272;53.332;9.860;2023-03-14T05:55:04;7.57;;;3.90;;
2522;SDS011;1272;53.332;9.860;2023-03-14T05:57:30;5.43;;;3.37;;
2522;SDS011;1272;53.332;9.860;2023-03-14T05:59:56;5.13;;;3.43;;
2522;SDS011;1272;53.332;9.860;2023-03-14T06:02:21;6.30;;;3.97;;
2522;SDS011;1272;53.332;9.860;2023-03-14T06:04:47;6.30;;;3.83;;
2522;SDS011;1272;53.332;9.860;2023-03-14T06:07:12;6.83;;;3.83;;
2522;SDS011;1272;53.332;9.860;2023-03-14T06:09:38;6.20;;;3.73;;
2522;SDS011;1272;53.332;9.860;2023-03-14T06:12:04;6.07;;;4.13;;
2522;SDS011;1272;53.332;9.860;2023-03-14T06:14:30;4.43;;;3.57;;
2522;SDS011;1272;53.332;9.860;2023-03-14T06:16:56;3.73;;;3.50;;
2522;SDS011;1272;53.332;9.860;2023-03-14T06:19:24;5.80;;;3.57;;
2522;SDS011;1272;53.332;9.860;2023-03-14T06:21:50;4.20;;;3.20;;
2522;SDS011;1272;53.332;9.860;2023-03-14T06:24:16;6.10;;;3.30;;
2522;SDS011;1272;53.332;9.860;2023-03-14T06:26:41;4.03;;;3.30;;
2522;SDS011;1272;53.332;9.860;2023-03-14T06:29:07;3.50;;;2.90;;
2522;SDS011;1272;53.332;9.860;2023-03-14T06:31:33;3.67;;;3.37;;
2522;SDS011;1272;53.332;9.860;2023-03-14T06:33:59;3.37;;;2.73;;
2522;SDS011;1272;53.332;9.860;2023-03-14T06:36:25;3.30;;;3.10;;
2522;SDS011;1272;53.332;9.860;2023-03-14T06:38:51;4.07;;;3.20;;
2522;SDS011;1272;53.332;9.860;2023-03-14T06:41:16;8.70;;;3.57;;
2522;SDS011;1272;53.332;9.860;2023-03-14T06:43:42;4.40;;;2.87;;
2522;SDS011;1272;53.332;9.860;2023-03-14T06:46:08;7.03;;;2.53;;
2522;SDS011;1272;53.332;9.860;2023-03-14T06:48:34;4.63;;;3.67;;
2522;SDS011;1272;53.332;9.860;2023-03-14T06:51:00;8.00;;;3.80;;
2522;SDS011;1272;53.332;9.860;2023-03-14T06:53:25;4.57;;;2.70;;
2522;SDS011;1272;53.332;9.860;2023-03-14T06:55:51;3.77;;;3.40;;
2522;SDS011;1272;53.332;9.860;2023-03-14T06:58:17;3.67;;;2.90;;
2522;SDS011;1272;53.332;9.860;2023-03-14T07:00:42;6.63;;;2.90;;
2522;SDS011;1272;53.332;9.860;2023-03-14T07:03:08;3.50;;;2.40;;
2522;SDS011;1272;53.332;9.860;2023-03-14T07:05:39;2.00;;;1.90;;
2522;SDS011;1272;53.332;9.860;2023-03-14T07:08:06;4.40;;;2.37;;
2522;SDS011;1272;53.332;9.860;2023-03-14T07:10:32;2.47;;;2.30;;
2522;SDS011;1272;53.332;9.860;2023-03-14T07:12:58;3.13;;;1.80;;
2522;SDS011;1272;53.332;9.860;2023-03-14T07:15:24;4.07;;;2.27;;
2522;SDS011;1272;53.332;9.860;2023-03-14T07:17:50;2.90;;;1.70;;
2522;SDS011;1272;53.332;9.860;2023-03-14T07:20:16;2.97;;;1.97;;
2522;SDS011;1272;53.332;9.860;2023-03-14T07:22:42;4.20;;;2.03;;
2522;SDS011;1272;53.332;9.860;2023-03-14T07:25:08;2.67;;;1.70;;
2522;SDS011;1272;53.332;9.860;2023-03-14T07:27:36;5.47;;;2.47;;
2522;SDS011;1272;53.332;9.860;2023-03-14T07:30:02;2.73;;;2.50;;
2522;SDS011;1272;53.332;9.860;2023-03-14T07:32:28;2.70;;;2.43;;
2522;SDS011;1272;53.332;9.860;2023-03-14T07:34:54;6.63;;;2.70;;
2522;SDS011;1272;53.332;9.860;2023-03-14T07:37:20;3.33;;;3.07;;
2522;SDS011;1272;53.332;9.860;2023-03-14T07:39:45;6.07;;;2.80;;
2522;SDS011;1272;53.332;9.860;2023-03-14T07:42:11;3.13;;;2.90;;
2522;SDS011;1272;53.332;9.860;2023-03-14T07:44:37;8.13;;;4.30;;
2522;SDS011;1272;53.332;9.860;2023-03-14T07:47:02;7.13;;;4.17;;
2522;SDS011;1272;53.332;9.860;2023-03-14T07:49:29;4.70;;;3.30;;
2522;SDS011;1272;53.332;9.860;2023-03-14T07:51:55;3.47;;;3.27;;
2522;SDS011;1272;53.332;9.860;2023-03-14T07:54:21;4.73;;;3.30;;
2522;SDS011;1272;53.332;9.860;2023-03-14T07:56:48;7.80;;;3.43;;
2522;SDS011;1272;53.332;9.860;2023-03-14T07:59:14;4.80;;;3.93;;
2522;SDS011;1272;53.332;9.860;2023-03-14T08:01:39;5.77;;;4.37;;
2522;SDS011;1272;53.332;9.860;2023-03-14T08:04:05;7.60;;;4.63;;
2522;SDS011;1272;53.332;9.860;2023-03-14T08:06:31;8.90;;;5.03;;
2522;SDS011;1272;53.332;9.860;2023-03-14T08:08:56;5.50;;;4.90;;
2522;SDS011;1272;53.332;9.860;2023-03-14T08:11:22;6.47;;;5.23;;
2522;SDS011;1272;53.332;9.860;2023-03-14T08:13:48;7.30;;;5.30;;
2522;SDS011;1272;53.332;9.860;2023-03-14T08:16:16;5.80;;;5.27;;
2522;SDS011;1272;53.332;9.860;2023-03-14T08:18:42;5.77;;;4.83;;
2522;SDS011;1272;53.332;9.860;2023-03-14T08:21:08;8.20;;;5.53;;
2522;SDS011;1272;53.332;9.860;2023-03-14T08:23:34;7.87;;;5.67;;
2522;SDS011;1272;53.332;9.860;2023-03-14T08:25:59;6.30;;;5.30;;
2522;SDS011;1272;53.332;9.860;2023-03-14T08:28:25;11.13;;;5.43;;
2522;SDS011;1272;53.332;9.860;2023-03-14T08:30:55;7.33;;;5.47;;
2522;SDS011;1272;53.332;9.860;2023-03-14T08:33:25;13.27;;;5.60;;
2522;SDS011;1272;53.332;9.860;2023-03-14T08:35:52;7.23;;;5.70;;
2522;SDS011;1272;53.332;9.860;2023-03-14T08:38:18;8.47;;;5.43;;
2522;SDS011;1272;53.332;9.860;2023-03-14T08:40:44;9.33;;;5.83;;
2522;SDS011;1272;53.332;9.860;2023-03-14T08:43:09;7.67;;;5.33;;
2522;SDS011;1272;53.332;9.860;2023-03-14T08:45:35;10.63;;;5.27;;
2522;SDS011;1272;53.332;9.860;2023-03-14T08:48:01;7.67;;;5.33;;
2522;SDS011;1272;53.332;9.860;2023-03-14T08:50:26;8.17;;;6.10;;
2522;SDS011;1272;53.332;9.860;2023-03-14T08:52:52;11.30;;;5.80;;
2522;SDS011;1272;53.332;9.860;2023-03-14T08:55:18;12.37;;;5.30;;
2522;SDS011;1272;53.332;9.860;2023-03-14T08:57:43;9.37;;;5.30;;
2522;SDS011;1272;53.332;9.860;2023-03-14T09:00:10;6.60;;;4.77;;
2522;SDS011;1272;53.332;9.860;2023-03-14T09:02:40;6.87;;;4.93;;
2522;SDS011;1272;53.332;9.860;2023-03-14T09:05:08;9.70;;;5.67;;
2522;SDS011;1272;53.332;9.860;2023-03-14T09:07:35;7.60;;;5.30;;
2522;SDS011;1272;53.332;9.860;2023-03-14T09:10:01;6.00;;;4.40;;
2522;SDS011;1272;53.332;9.860;2023-03-14T09:12:27;7.80;;;4.70;;
2522;SDS011;1272;53.332;9.860;2023-03-14T09:14:53;5.27;;;3.93;;
2522;SDS011;1272;53.332;9.860;2023-03-14T09:17:19;6.57;;;4.63;;
2522;SDS011;1272;53.332;9.860;2023-03-14T09:19:44;6.70;;;3.90;;
2522;SDS011;1272;53.332;9.860;2023-03-14T09:22:10;6.27;;;4.20;;
2522;SDS011;1272;53.332;9.860;2023-03-14T09:24:35;5.53;;;4.60;;
2522;SDS011;1272;53.332;9.860;2023-03-14T09:27:01;5.63;;;3.67;;
2522;SDS011;1272;53.332;9.860;2023-03-14T09:29:27;4.00;;;3.60;;
2522;SDS011;1272;53.332;9.860;2023-03-14T09:31:53;7.23;;;4.20;;
2522;SDS011;1272;53.332;9.860;2023-03-14T09:34:18;7.70;;;3.77;;
2522;SDS011;1272;53.332;9.860;2023-03-14T09:36:44;3.90;;;3.10;;
2522;SDS011;1272;53.332;9.860;2023-03-14T09:39:11;5.67;;;3.63;;
2522;SDS011;1272;53.332;9.860;2023-03-14T09:41:37;2.87;;;2.50;;
2522;SDS011;1272;53.332;9.860;2023-03-14T09:44:16;3.47;;;2.87;;
2522;SDS011;1272;53.332;9.860;2023-03-14T09:46:50;4.27;;;3.33;;
2522;SDS011;1272;53.332;9.860;2023-03-14T09:49:28;2.50;;;2.30;;
2522;SDS011;1272;53.332;9.860;2023-03-14T09:51:55;3.63;;;2.70;;
2522;SDS011;1272;53.332;9.860;2023-03-14T09:56:58;3.93;;;3.33;;
2522;SDS011;1272;53.332;9.860;2023-03-14T09:59:24;10.37;;;2.57;;
2522;SDS011;1272;53.332;9.860;2023-03-14T10:01:51;2.57;;;2.40;;
2522;SDS011;1272;53.332;9.860;2023-03-14T10:04:20;2.50;;;2.30;;
2522;SDS011;1272;53.332;9.860;2023-03-14T10:06:48;3.20;;;1.60;;
2522;SDS011;1272;53.332;9.860;2023-03-14T10:09:21;1.43;;;1.00;;
2522;SDS011;1272;53.332;9.860;2023-03-14T10:11:51;0.80;;;0.73;;
2522;SDS011;1272;53.332;9.860;2023-03-14T10:14:28;2.20;;;1.13;;
2522;SDS011;1272;53.332;9.860;2023-03-14T10:16:55;1.00;;;0.80;;
2522;SDS011;1272;53.332;9.860;2023-03-14T10:19:31;1.10;;;0.80;;
2522;SDS011;1272;53.332;9.860;2023-03-14T10:21:57;1.13;;;0.60;;
2522;SDS011;1272;53.332;9.860;2023-03-14T10:24:27;1.63;;;0.90;;
2522;SDS011;1272;53.332;9.860;2023-03-14T10:26:58;1.77;;;0.90;;
2522;SDS011;1272;53.332;9.860;2023-03-14T10:29:29;1.33;;;0.87;;
2522;SDS011;1272;53.332;9.860;2023-03-14T10:34:30;1.80;;;1.70;;
2522;SDS011;1272;53.332;9.860;2023-03-14T10:36:59;6.70;;;2.43;;
2522;SDS011;1272;53.332;9.860;2023-03-14T10:44:56;3.30;;;3.20;;
2522;SDS011;1272;53.332;9.860;2023-03-14T10:47:25;2.90;;;2.80;;
2522;SDS011;1272;53.332;9.860;2023-03-14T10:49:57;3.13;;;2.40;;
2522;SDS011;1272;53.332;9.860;2023-03-14T10:53:00;2.10;;;2.00;;
2522;SDS011;1272;53.332;9.860;2023-03-14T10:55:48;1.90;;;1.80;;
2522;SDS011;1272;53.332;9.860;2023-03-14T10:58:56;1.47;;;1.37;;
2522;SDS011;1272;53.332;9.860;2023-03-14T11:01:21;1.10;;;1.10;;
2522;SDS011;1272;53.332;9.860;2023-03-14T11:04:21;3.00;;;1.80;;
2522;SDS011;1272;53.332;9.860;2023-03-14T11:11:56;0.90;;;0.90;;
2522;SDS011;1272;53.332;9.860;2023-03-14T11:14:51;1.43;;;0.97;;
2522;SDS011;1272;53.332;9.860;2023-03-14T11:17:59;1.47;;;1.00;;
2522;SDS011;1272;53.332;9.860;2023-03-14T11:29:08;1.63;;;1.00;;
2522;SDS011;1272;53.332;9.860;2023-03-14T11:31:43;2.00;;;1.10;;
2522;SDS011;1272;53.332;9.860;2023-03-14T11:34:13;1.80;;;1.10;;
2522;SDS011;1272;53.332;9.860;2023-03-14T11:37:07;4.87;;;1.27;;
2522;SDS011;1272;53.332;9.860;2023-03-14T11:42:37;2.20;;;1.00;;
2522;SDS011;1272;53.332;9.860;2023-03-14T11:45:04;0.80;;;0.80;;
2522;SDS011;1272;53.332;9.860;2023-03-14T11:47:39;2.57;;;1.10;;
2522;SDS011;1272;53.332;9.860;2023-03-14T11:50:14;1.87;;;1.10;;
2522;SDS011;1272;53.332;9.860;2023-03-14T11:52:53;1.53;;;1.10;;
2522;SDS011;1272;53.332;9.860;2023-03-14T11:55:43;2.33;;;0.90;;
2522;SDS011;1272;53.332;9.860;2023-03-14T11:58:17;1.13;;;1.03;;
2522;SDS011;1272;53.332;9.860;2023-03-14T12:00:53;2.33;;;1.10;;
2522;SDS011;1272;53.332;9.860;2023-03-14T12:03:55;1.57;;;1.33;;
2522;SDS011;1272;53.332;9.860;2023-03-14T12:06:32;2.47;;;1.23;;
2522;SDS011;1272;53.332;9.860;2023-03-14T12:09:21;6.00;;;1.57;;
2522;SDS011;1272;53.332;9.860;2023-03-14T12:11:48;2.80;;;1.23;;
2522;SDS011;1272;53.332;9.860;2023-03-14T12:14:22;2.43;;;1.77;;
2522;SDS011;1272;53.332;9.860;2023-03-14T12:16:50;9.23;;;1.50;;
2522;SDS011;1272;53.332;9.860;2023-03-14T12:19:30;3.20;;;1.53;;
2522;SDS011;1272;53.332;9.860;2023-03-14T12:22:43;3.27;;;1.97;;
2522;SDS011;1272;53.332;9.860;2023-03-14T12:25:14;2.13;;;1.80;;
2522;SDS011;1272;53.332;9.860;2023-03-14T12:27:48;5.67;;;1.70;;
2522;SDS011;1272;53.332;9.860;2023-03-14T12:30:36;3.67;;;1.40;;
2522;SDS011;1272;53.332;9.860;2023-03-14T12:35:45;3.13;;;2.10;;
2522;SDS011;1272;53.332;9.860;2023-03-14T12:38:16;2.40;;;1.40;;
2522;SDS011;1272;53.332;9.860;2023-03-14T12:43:31;3.37;;;1.50;;
2522;SDS011;1272;53.332;9.860;2023-03-14T12:48:42;4.17;;;1.73;;
2522;SDS011;1272;53.332;9.860;2023-03-14T12:57:04;8.10;;;1.93;;
2522;SDS011;1272;53.332;9.860;2023-03-14T12:59:38;4.13;;;1.60;;
2522;SDS011;1272;53.332;9.860;2023-03-14T13:02:25;4.40;;;2.10;;
2522;SDS011;1272;53.332;9.860;2023-03-14T13:10:27;5.53;;;1.93;;
2522;SDS011;1272;53.332;9.860;2023-03-14T13:15:34;11.83;;;2.20;;
2522;SDS011;1272;53.332;9.860;2023-03-14T13:18:47;2.93;;;1.73;;
2522;SDS011;1272;53.332;9.860;2023-03-14T13:21:02;9.63;;;3.00;;
2522;SDS011;1272;53.332;9.860;2023-03-14T13:23:32;10.70;;;2.50;;
2522;SDS011;1272;53.332;9.860;2023-03-14T13:26:00;13.30;;;2.50;;
2522;SDS011;1272;53.332;9.860;2023-03-14T13:28:27;9.27;;;3.40;;
2522;SDS011;1272;53.332;9.860;2023-03-14T13:30:56;7.53;;;2.43;;
2522;SDS011;1272;53.332;9.860;2023-03-14T13:33:24;12.33;;;2.60;;
2522;SDS011;1272;53.332;9.860;2023-03-14T13:38:28;9.33;;;1.97;;
2522;SDS011;1272;53.332;9.860;2023-03-14T13:40:55;11.97;;;2.50;;
2522;SDS011;1272;53.332;9.860;2023-03-14T13:43:31;9.57;;;1.83;;
2522;SDS011;1272;53.332;9.860;2023-03-14T13:46:14;7.47;;;2.27;;
2522;SDS011;1272;53.332;9.860;2023-03-14T13:51:53;7.23;;;1.70;;
2522;SDS011;1272;53.332;9.860;2023-03-14T13:54:20;5.67;;;1.90;;
2522;SDS011;1272;53.332;9.860;2023-03-14T13:56:47;5.90;;;1.60;;
2522;SDS011;1272;53.332;9.860;2023-03-14T13:59:27;13.47;;;2.37;;
2522;SDS011;1272;53.332;9.860;2023-03-14T14:01:55;6.33;;;2.20;;
2522;SDS011;1272;53.332;9.860;2023-03-14T14:04:22;8.67;;;1.87;;
2522;SDS011;1272;53.332;9.860;2023-03-14T14:06:54;4.93;;;1.80;;
2522;SDS011;1272;53.332;9.860;2023-03-14T14:09:24;10.13;;;1.90;;
2522;SDS011;1272;53.332;9.860;2023-03-14T14:11:54;6.40;;;2.03;;
2522;SDS011;1272;53.332;9.860;2023-03-14T14:14:25;8.70;;;1.77;;
2522;SDS011;1272;53.332;9.860;2023-03-14T14:17:07;8.70;;;2.23;;
2522;SDS011;1272;53.332;9.860;2023-03-14T14:19:35;5.17;;;2.30;;
2522;SDS011;1272;53.332;9.860;2023-03-14T14:22:03;5.57;;;1.60;;
2522;SDS011;1272;53.332;9.860;2023-03-14T14:24:30;3.80;;;1.53;;
2522;SDS011;1272;53.332;9.860;2023-03-14T14:27:16;7.43;;;2.70;;
2522;SDS011;1272;53.332;9.860;2023-03-14T14:32:38;4.33;;;1.60;;
2522;SDS011;1272;53.332;9.860;2023-03-14T14:35:05;7.27;;;2.50;;
2522;SDS011;1272;53.332;9.860;2023-03-14T14:37:41;6.43;;;2.10;;
2522;SDS011;1272;53.332;9.860;2023-03-14T14:40:08;5.07;;;1.63;;
2522;SDS011;1272;53.332;9.860;2023-03-14T14:43:01;10.00;;;2.87;;
2522;SDS011;1272;53.332;9.860;2023-03-14T14:45:28;6.40;;;2.13;;
2522;SDS011;1272;53.332;9.860;2023-03-14T14:50:34;2.47;;;1.57;;
2522;SDS011;1272;53.332;9.860;2023-03-14T14:55:53;11.70;;;2.37;;
2522;SDS011;1272;53.332;9.860;2023-03-14T14:58:25;6.80;;;2.10;;
2522;SDS011;1272;53.332;9.860;2023-03-14T15:00:55;6.33;;;2.23;;
2522;SDS011;1272;53.332;9.860;2023-03-14T15:03:29;11.03;;;2.20;;
2522;SDS011;1272;53.332;9.860;2023-03-14T15:05:57;7.50;;;2.40;;
2522;SDS011;1272;53.332;9.860;2023-03-14T15:08:26;4.30;;;1.83;;
2522;SDS011;1272;53.332;9.860;2023-03-14T15:10:53;3.83;;;1.57;;
2522;SDS011;1272;53.332;9.860;2023-03-14T15:13:19;4.77;;;1.70;;
2522;SDS011;1272;53.332;9.860;2023-03-14T15:15:45;10.33;;;2.50;;
2522;SDS011;1272;53.332;9.860;2023-03-14T15:18:13;7.20;;;2.03;;
2522;SDS011;1272;53.332;9.860;2023-03-14T15:20:41;4.47;;;1.73;;
2522;SDS011;1272;53.332;9.860;2023-03-14T15:23:14;7.27;;;2.20;;
2522;SDS011;1272;53.332;9.860;2023-03-14T15:25:44;6.87;;;2.73;;
2522;SDS011;1272;53.332;9.860;2023-03-14T15:28:28;4.13;;;1.67;;
2522;SDS011;1272;53.332;9.860;2023-03-14T15:30:58;2.30;;;1.37;;
2522;SDS011;1272;53.332;9.860;2023-03-14T15:33:25;9.40;;;1.70;;
2522;SDS011;1272;53.332;9.860;2023-03-14T15:35:51;5.63;;;1.90;;
2522;SDS011;1272;53.332;9.860;2023-03-14T15:38:18;5.00;;;2.57;;
2522;SDS011;1272;53.332;9.860;2023-03-14T15:40:47;4.87;;;2.70;;
2522;SDS011;1272;53.332;9.860;2023-03-14T15:43:16;5.33;;;2.03;;
2522;SDS011;1272;53.332;9.860;2023-03-14T15:45:43;8.87;;;2.50;;
2522;SDS011;1272;53.332;9.860;2023-03-14T15:48:18;8.60;;;1.97;;
2522;SDS011;1272;53.332;9.860;2023-03-14T15:50:46;8.87;;;1.83;;
2522;SDS011;1272;53.332;9.860;2023-03-14T15:53:12;7.20;;;2.67;;
2522;SDS011;1272;53.332;9.860;2023-03-14T15:55:38;6.27;;;1.70;;
2522;SDS011;1272;53.332;9.860;2023-03-14T15:58:04;11.30;;;2.50;;
2522;SDS011;1272;53.332;9.860;2023-03-14T16:00:30;8.47;;;1.53;;
2522;SDS011;1272;53.332;9.860;2023-03-14T16:02:56;9.83;;;2.10;;
2522;SDS011;1272;53.332;9.860;2023-03-14T16:05:22;4.57;;;2.03;;
2522;SDS011;1272;53.332;9.860;2023-03-14T16:07:47;11.93;;;2.00;;
2522;SDS011;1272;53.332;9.860;2023-03-14T16:10:15;5.00;;;2.03;;
2522;SDS011;1272;53.332;9.860;2023-03-14T16:12:40;3.93;;;1.70;;
2522;SDS011;1272;53.332;9.860;2023-03-14T16:15:07;4.83;;;1.97;;
2522;SDS011;1272;53.332;9.860;2023-03-14T16:17:34;3.37;;;1.93;;
2522;SDS011;1272;53.332;9.860;2023-03-14T16:20:02;6.53;;;1.93;;
2522;SDS011;1272;53.332;9.860;2023-03-14T16:22:29;10.40;;;1.93;;
2522;SDS011;1272;53.332;9.860;2023-03-14T16:24:58;12.13;;;2.33;;
2522;SDS011;1272;53.332;9.860;2023-03-14T16:27:23;4.70;;;1.90;;
2522;SDS011;1272;53.332;9.860;2023-03-14T16:29:49;10.40;;;2.27;;
2522;SDS011;1272;53.332;9.860;2023-03-14T16:32:15;8.73;;;2.10;;
2522;SDS011;1272;53.332;9.860;2023-03-14T16:34:40;5.73;;;1.70;;
2522;SDS011;1272;53.332;9.860;2023-03-14T16:37:06;4.00;;;1.50;;
2522;SDS011;1272;53.332;9.860;2023-03-14T16:39:32;7.70;;;1.73;;
2522;SDS011;1272;53.332;9.860;2023-03-14T16:41:58;7.77;;;1.90;;
2522;SDS011;1272;53.332;9.860;2023-03-14T16:44:24;6.77;;;2.63;;
2522;SDS011;1272;53.332;9.860;2023-03-14T16:46:49;6.13;;;1.97;;